createdAt,value
2018-06-25T00:00:03.820Z,16.40
2018-06-25T00:02:32.923Z,16.34
2018-06-25T00:05:01.786Z,16.33
2018-06-25T00:07:30.694Z,16.29
2018-06-25T00:10:01.768Z,16.26
2018-06-25T00:12:28.564Z,16.31
2018-06-25T00:14:57.550Z,16.30
2018-06-25T00:17:26.380Z,16.27
2018-06-25T00:19:55.318Z,16.23
2018-06-25T00:22:24.321Z,16.24
2018-06-25T00:24:53.224Z,16.23
2018-06-25T00:27:22.145Z,16.14
2018-06-25T00:29:51.066Z,16.16
2018-06-25T00:32:20.192Z,16.15
2018-06-25T00:34:49.166Z,16.41
2018-06-25T00:37:18.080Z,16.28
2018-06-25T00:39:48.712Z,16.27
2018-06-25T00:42:17.614Z,16.28
2018-06-25T00:44:46.583Z,16.27
2018-06-25T00:47:15.486Z,16.21
2018-06-25T00:49:44.412Z,16.24
2018-06-25T00:52:13.386Z,16.23
2018-06-25T00:54:42.348Z,16.19
2018-06-25T00:57:11.184Z,16.19
2018-06-25T00:59:54.051Z,16.19
2018-06-25T01:02:23.068Z,16.14
2018-06-25T01:04:51.958Z,16.07
2018-06-25T01:07:21.026Z,16.06
2018-06-25T01:09:50.053Z,16.06
2018-06-25T01:12:18.939Z,16.01
2018-06-25T01:14:47.825Z,16.04
2018-06-25T01:17:16.702Z,16.06
2018-06-25T01:19:45.684Z,16.09
2018-06-25T01:22:14.553Z,16.06
2018-06-25T01:24:43.496Z,16.05
2018-06-25T01:27:12.386Z,16.06
2018-06-25T01:29:42.146Z,16.13
2018-06-25T01:32:11.058Z,16.13
2018-06-25T01:34:39.982Z,16.09
2018-06-25T01:37:08.918Z,16.05
2018-06-25T01:39:37.778Z,16.03
2018-06-25T01:42:06.655Z,16.06
2018-06-25T01:44:35.544Z,16.06
2018-06-25T01:47:04.424Z,16.35
2018-06-25T01:49:33.293Z,16.21
2018-06-25T01:52:02.215Z,16.47
2018-06-25T01:54:31.226Z,16.57
2018-06-25T01:57:00.122Z,16.38
2018-06-25T01:59:29.079Z,16.30
2018-06-25T02:01:58.098Z,16.28
2018-06-25T02:04:26.876Z,16.21
2018-06-25T02:06:55.830Z,16.23
2018-06-25T02:09:24.725Z,16.20
2018-06-25T02:11:53.639Z,16.19
2018-06-25T02:14:22.559Z,16.18
2018-06-25T02:16:51.592Z,16.17
2018-06-25T02:19:23.094Z,16.20
2018-06-25T02:21:52.018Z,16.21
2018-06-25T02:24:20.924Z,16.19
2018-06-25T02:26:49.908Z,16.13
2018-06-25T02:29:18.723Z,16.12
2018-06-25T02:31:47.652Z,16.14
2018-06-25T02:34:19.114Z,16.10
2018-06-25T02:36:48.064Z,16.09
2018-06-25T02:39:16.956Z,16.16
2018-06-25T02:41:45.941Z,16.15
2018-06-25T02:44:14.900Z,16.36
2018-06-25T02:46:43.743Z,16.22
2018-06-25T02:49:12.645Z,16.20
2018-06-25T02:51:41.557Z,16.17
2018-06-25T02:54:10.431Z,16.16
2018-06-25T02:56:39.371Z,16.19
2018-06-25T02:59:08.381Z,16.17
2018-06-25T03:01:40.228Z,16.13
2018-06-25T03:04:09.135Z,16.14
2018-06-25T03:06:37.977Z,16.16
2018-06-25T03:09:08.679Z,16.10
2018-06-25T03:11:37.486Z,16.10
2018-06-25T03:14:06.519Z,16.08
2018-06-25T03:16:35.608Z,16.06
2018-06-25T03:19:04.730Z,16.07
2018-06-25T03:21:33.654Z,16.33
2018-06-25T03:24:05.719Z,16.15
2018-06-25T03:26:34.792Z,16.15
2018-06-25T03:29:03.635Z,16.14
2018-06-25T03:31:32.573Z,16.11
2018-06-25T03:34:01.494Z,16.08
2018-06-25T03:36:30.428Z,16.39
2018-06-25T03:38:59.306Z,16.25
2018-06-25T03:41:28.199Z,16.24
2018-06-25T03:43:57.053Z,16.21
2018-06-25T03:46:25.978Z,16.21
2018-06-25T03:48:55.012Z,16.20
2018-06-25T03:51:23.958Z,16.44
2018-06-25T03:53:52.948Z,16.54
2018-06-25T03:56:21.886Z,16.35
2018-06-25T03:58:50.740Z,16.30
2018-06-25T04:01:19.694Z,16.31
2018-06-25T04:03:48.603Z,16.25
2018-06-25T04:06:17.461Z,16.52
2018-06-25T04:08:46.374Z,16.34
2018-06-25T04:11:15.294Z,16.33
2018-06-25T04:13:44.156Z,16.31
2018-06-25T04:16:13.079Z,16.32
2018-06-25T04:18:41.994Z,16.34
2018-06-25T04:21:11.065Z,16.32
2018-06-25T04:23:40.123Z,16.30
2018-06-25T04:26:09.006Z,16.34
2018-06-25T04:28:37.910Z,16.32
2018-06-25T04:31:06.794Z,16.30
2018-06-25T04:33:35.715Z,16.32
2018-06-25T04:36:04.662Z,16.33
2018-06-25T04:38:35.934Z,16.36
2018-06-25T04:41:04.809Z,16.41
2018-06-25T04:43:33.743Z,16.41
2018-06-25T04:46:02.589Z,16.43
2018-06-25T04:48:31.364Z,16.41
2018-06-25T04:51:00.198Z,16.47
2018-06-25T04:53:29.069Z,16.54
2018-06-25T04:55:57.943Z,16.52
2018-06-25T04:58:26.820Z,16.51
2018-06-25T05:00:55.707Z,16.54
2018-06-25T05:03:24.577Z,16.53
2018-06-25T05:05:53.523Z,16.59
2018-06-25T05:08:24.919Z,16.69
2018-06-25T05:10:53.788Z,16.73
2018-06-25T05:13:22.659Z,16.78
2018-06-25T05:15:51.549Z,16.87
2018-06-25T05:18:20.454Z,16.89
2018-06-25T05:20:49.347Z,16.86
2018-06-25T05:23:18.321Z,16.95
2018-06-25T05:25:47.488Z,17.03
2018-06-25T05:28:16.371Z,17.05
2018-06-25T05:30:45.294Z,17.15
2018-06-25T05:33:14.202Z,17.47
2018-06-25T05:35:43.071Z,17.30
2018-06-25T05:38:11.983Z,17.33
2018-06-25T05:40:41.001Z,17.33
2018-06-25T05:43:09.785Z,17.32
2018-06-25T05:45:38.664Z,17.27
2018-06-25T05:48:13.555Z,17.27
2018-06-25T05:50:42.468Z,17.30
2018-06-25T05:53:11.366Z,17.41
2018-06-25T05:55:40.228Z,17.43
2018-06-25T05:58:09.149Z,17.48
2018-06-25T06:00:38.053Z,17.55
2018-06-25T06:03:07.001Z,17.54
2018-06-25T06:05:35.908Z,17.53
2018-06-25T06:08:04.805Z,17.53
2018-06-25T06:10:33.795Z,17.53
2018-06-25T06:13:02.696Z,17.51
2018-06-25T06:15:31.575Z,17.49
2018-06-25T06:18:00.476Z,17.49
2018-06-25T06:20:29.368Z,17.51
2018-06-25T06:22:58.250Z,17.56
2018-06-25T06:25:27.175Z,17.59
2018-06-25T06:27:56.136Z,17.62
2018-06-25T06:30:25.043Z,17.66
2018-06-25T06:32:57.042Z,17.69
2018-06-25T06:35:25.899Z,17.79
2018-06-25T06:37:54.770Z,17.94
2018-06-25T06:40:23.635Z,17.94
2018-06-25T06:42:52.504Z,17.96
2018-06-25T06:45:21.446Z,18.03
2018-06-25T06:47:50.219Z,18.06
2018-06-25T06:50:19.137Z,18.07
2018-06-25T06:52:48.019Z,18.13
2018-06-25T06:55:17.035Z,18.21
2018-06-25T06:57:45.910Z,18.26
2018-06-25T07:00:14.809Z,18.30
2018-06-25T07:02:43.676Z,18.36
2018-06-25T07:05:12.553Z,18.40
2018-06-25T07:07:41.454Z,18.47
2018-06-25T07:10:10.405Z,18.49
2018-06-25T07:12:39.230Z,18.49
2018-06-25T07:15:08.108Z,18.53
2018-06-25T07:17:36.994Z,18.43
2018-06-25T07:20:06.002Z,18.47
2018-06-25T07:22:34.845Z,18.51
2018-06-25T07:25:03.782Z,18.56
2018-06-25T07:27:32.855Z,18.58
2018-06-25T07:30:01.940Z,18.66
2018-06-25T07:32:30.898Z,18.68
2018-06-25T07:34:59.673Z,18.63
2018-06-25T07:37:30.366Z,18.63
2018-06-25T07:39:59.631Z,18.69
2018-06-25T07:42:28.578Z,18.96
2018-06-25T07:44:57.745Z,18.90
2018-06-25T07:47:26.807Z,18.86
2018-06-25T07:49:55.739Z,18.89
2018-06-25T07:52:24.560Z,18.91
2018-06-25T07:54:53.706Z,18.93
2018-06-25T07:57:22.488Z,18.95
2018-06-25T07:59:54.304Z,18.99
2018-06-25T08:02:23.210Z,19.03
2018-06-25T08:04:52.105Z,19.20
2018-06-25T08:07:21.032Z,19.29
2018-06-25T08:09:49.884Z,19.30
2018-06-25T08:12:18.703Z,19.34
2018-06-25T08:14:47.554Z,19.47
2018-06-25T08:17:16.466Z,19.60
2018-06-25T08:19:45.700Z,19.84
2018-06-25T08:22:14.536Z,20.13
2018-06-25T08:24:51.179Z,20.31
2018-06-25T08:27:20.098Z,20.48
2018-06-25T08:29:49.185Z,20.43
2018-06-25T08:32:18.169Z,20.24
2018-06-25T08:34:47.155Z,20.40
2018-06-25T08:37:16.140Z,20.16
2018-06-25T08:39:45.862Z,20.40
2018-06-25T08:42:14.777Z,20.44
2018-06-25T08:44:45.221Z,20.23
2018-06-25T08:47:12.699Z,20.14
2018-06-25T08:49:41.615Z,20.15
2018-06-25T08:52:12.659Z,20.30
2018-06-25T08:54:41.986Z,20.51
2018-06-25T08:57:11.152Z,20.65
2018-06-25T08:59:40.020Z,20.58
2018-06-25T09:02:08.941Z,20.45
2018-06-25T09:04:37.810Z,20.34
2018-06-25T09:07:06.837Z,20.42
2018-06-25T09:09:40.750Z,20.17
2018-06-25T09:12:09.649Z,20.17
2018-06-25T09:14:38.549Z,20.11
2018-06-25T09:17:07.420Z,20.06
2018-06-25T09:19:36.317Z,20.10
2018-06-25T09:22:05.180Z,20.20
2018-06-25T09:24:34.063Z,20.31
2018-06-25T09:27:02.973Z,20.30
2018-06-25T09:29:31.876Z,20.05
2018-06-25T09:32:00.961Z,20.06
2018-06-25T09:34:49.075Z,20.14
2018-06-25T09:37:18.909Z,20.42
2018-06-25T09:39:49.245Z,20.53
2018-06-25T09:42:18.224Z,20.58
2018-06-25T09:44:47.145Z,20.58
2018-06-25T09:47:16.071Z,20.60
2018-06-25T09:49:44.897Z,20.67
2018-06-25T09:52:13.799Z,20.87
2018-06-25T09:54:42.773Z,21.22
2018-06-25T09:57:11.617Z,21.34
2018-06-25T09:59:40.574Z,21.31
2018-06-25T10:02:09.455Z,21.16
2018-06-25T10:04:38.377Z,21.19
2018-06-25T10:07:07.410Z,21.88
2018-06-25T10:09:36.193Z,22.67
2018-06-25T10:12:05.137Z,22.58
2018-06-25T10:14:33.935Z,22.54
2018-06-25T10:17:03.042Z,22.30
2018-06-25T10:19:31.983Z,22.11
2018-06-25T10:22:03.968Z,21.84
2018-06-25T10:24:32.851Z,21.71
2018-06-25T10:27:01.702Z,21.66
2018-06-25T10:29:30.613Z,21.60
2018-06-25T10:31:59.516Z,21.62
2018-06-25T10:34:28.470Z,21.78
2018-06-25T10:36:57.375Z,22.12
2018-06-25T10:39:28.244Z,22.55
2018-06-25T10:41:57.196Z,23.74
2018-06-25T10:44:26.025Z,24.76
2018-06-25T10:46:54.883Z,24.54
2018-06-25T10:49:23.736Z,24.20
2018-06-25T10:51:52.605Z,23.70
2018-06-25T10:54:21.467Z,23.64
2018-06-25T10:56:50.326Z,24.13
2018-06-25T10:59:19.283Z,25.27
2018-06-25T11:01:48.056Z,26.26
2018-06-25T11:04:16.905Z,26.89
2018-06-25T11:06:45.724Z,27.79
2018-06-25T11:09:14.559Z,27.94
2018-06-25T11:11:43.430Z,26.97
2018-06-25T11:14:12.287Z,26.38
2018-06-25T11:16:41.128Z,26.57
2018-06-25T11:19:11.145Z,27.29
2018-06-25T11:21:39.869Z,28.18
2018-06-25T11:24:08.690Z,28.56
2018-06-25T11:27:32.443Z,28.26
2018-06-25T11:30:01.147Z,26.90
2018-06-25T11:32:30.000Z,26.09
2018-06-25T11:34:58.831Z,25.55
2018-06-25T11:37:27.653Z,25.63
2018-06-25T11:40:45.439Z,26.37
2018-06-25T11:43:14.298Z,27.50
2018-06-25T11:45:43.120Z,28.28
2018-06-25T11:48:12.164Z,28.47
2018-06-25T11:50:43.133Z,28.00
2018-06-25T11:53:12.164Z,28.27
2018-06-25T11:55:41.054Z,28.86
2018-06-25T11:58:09.884Z,28.89
2018-06-25T12:00:38.758Z,28.42
2018-06-25T12:03:08.011Z,28.05
2018-06-25T12:05:36.747Z,28.22
2018-06-25T12:08:05.571Z,28.27
2018-06-25T12:10:34.486Z,27.89
2018-06-25T12:13:03.312Z,27.57
2018-06-25T12:15:32.150Z,27.46
2018-06-25T12:18:01.013Z,27.52
2018-06-25T12:20:29.854Z,27.48
2018-06-25T12:22:58.685Z,27.34
2018-06-25T12:25:27.488Z,27.22
2018-06-25T12:27:56.390Z,26.98
2018-06-25T12:30:25.254Z,26.60
2018-06-25T12:32:54.095Z,26.36
2018-06-25T12:35:22.969Z,26.18
2018-06-25T12:37:51.827Z,26.11
2018-06-25T12:40:20.625Z,26.09
2018-06-25T12:42:49.453Z,26.17
2018-06-25T12:45:18.302Z,26.31
2018-06-25T12:47:47.110Z,26.31
2018-06-25T12:50:15.950Z,25.79
2018-06-25T12:52:44.978Z,25.16
2018-06-25T12:55:13.863Z,24.88
2018-06-25T12:57:42.666Z,24.84
2018-06-25T13:00:11.568Z,24.98
2018-06-25T13:02:40.388Z,25.12
2018-06-25T13:05:09.235Z,25.28
2018-06-25T13:07:38.100Z,25.52
2018-06-25T13:10:07.236Z,25.59
2018-06-25T13:12:36.084Z,25.66
2018-06-25T13:15:08.964Z,25.41
2018-06-25T13:17:37.796Z,25.31
2018-06-25T13:20:06.712Z,25.25
2018-06-25T13:22:35.529Z,25.46
2018-06-25T13:25:04.471Z,25.24
2018-06-25T13:27:33.314Z,24.85
2018-06-25T13:30:02.660Z,24.77
2018-06-25T13:32:31.497Z,24.77
2018-06-25T13:35:00.346Z,24.89
2018-06-25T13:37:29.228Z,25.06
2018-06-25T13:39:58.075Z,25.23
2018-06-25T13:42:26.903Z,25.30
2018-06-25T13:44:55.762Z,25.35
2018-06-25T13:47:24.614Z,25.31
2018-06-25T13:49:53.468Z,25.16
2018-06-25T13:52:22.699Z,25.11
2018-06-25T13:54:51.621Z,25.05
2018-06-25T13:57:20.607Z,24.99
2018-06-25T13:59:49.464Z,24.95
2018-06-25T14:02:18.352Z,24.89
2018-06-25T14:04:47.208Z,24.93
2018-06-25T14:07:16.062Z,24.95
2018-06-25T14:09:44.910Z,25.13
2018-06-25T14:12:13.842Z,25.11
2018-06-25T14:14:42.809Z,25.22
2018-06-25T14:17:11.693Z,25.10
2018-06-25T14:19:47.922Z,24.88
2018-06-25T14:22:16.829Z,24.81
2018-06-25T14:25:01.739Z,24.83
2018-06-25T14:27:48.471Z,24.83
2018-06-25T14:30:35.304Z,24.78
2018-06-25T14:33:04.766Z,24.77
2018-06-25T14:35:33.630Z,24.70
2018-06-25T14:38:02.570Z,24.64
2018-06-25T14:40:31.673Z,24.64
2018-06-25T14:43:00.449Z,24.62
2018-06-25T14:45:29.298Z,24.62
2018-06-25T14:47:58.207Z,24.61
2018-06-25T14:50:27.019Z,24.72
2018-06-25T14:52:55.894Z,24.67
2018-06-25T14:55:24.807Z,24.77
2018-06-25T14:57:53.644Z,24.71
2018-06-25T15:00:22.499Z,24.70
2018-06-25T15:02:57.225Z,24.67
2018-06-25T15:05:26.069Z,24.60
2018-06-25T15:07:54.900Z,24.55
2018-06-25T15:10:23.771Z,24.48
2018-06-25T15:12:52.602Z,24.51
2018-06-25T15:15:21.455Z,24.42
2018-06-25T15:17:50.354Z,24.36
2018-06-25T15:20:19.182Z,24.36
2018-06-25T15:22:48.039Z,24.32
2018-06-25T15:25:34.747Z,24.37
2018-06-25T15:28:03.632Z,24.37
2018-06-25T15:30:32.532Z,24.45
2018-06-25T15:33:01.378Z,24.56
2018-06-25T15:35:30.217Z,24.48
2018-06-25T15:37:59.117Z,24.49
2018-06-25T15:40:27.886Z,24.49
2018-06-25T15:42:56.756Z,24.39
2018-06-25T15:45:25.621Z,24.45
2018-06-25T15:48:00.829Z,24.45
2018-06-25T15:50:29.648Z,24.40
2018-06-25T15:52:58.568Z,24.40
2018-06-25T15:55:27.453Z,24.38
2018-06-25T15:57:56.312Z,24.34
2018-06-25T16:00:25.158Z,24.27
2018-06-25T16:02:54.007Z,24.21
2018-06-25T16:05:22.848Z,24.21
2018-06-25T16:07:51.813Z,24.13
2018-06-25T16:10:20.737Z,24.11
2018-06-25T16:12:49.612Z,24.06
2018-06-25T16:15:18.454Z,24.00
2018-06-25T16:17:47.389Z,23.94
2018-06-25T16:20:16.223Z,23.91
2018-06-25T16:22:45.089Z,23.90
2018-06-25T16:25:13.962Z,23.82
2018-06-25T16:27:42.854Z,23.83
2018-06-25T16:30:11.673Z,23.83
2018-06-25T16:32:46.453Z,23.74
2018-06-25T16:35:15.649Z,23.64
2018-06-25T16:37:44.811Z,23.58
2018-06-25T16:40:13.671Z,23.51
2018-06-25T16:42:42.548Z,23.52
2018-06-25T16:45:11.432Z,23.49
2018-06-25T16:47:40.274Z,23.50
2018-06-25T16:50:09.138Z,23.43
2018-06-25T16:52:37.999Z,23.44
2018-06-25T16:55:06.904Z,23.40
2018-06-25T16:57:37.576Z,23.37
2018-06-25T17:00:06.762Z,23.29
2018-06-25T17:02:35.624Z,23.33
2018-06-25T17:05:04.495Z,23.38
2018-06-25T17:07:33.353Z,23.30
2018-06-25T17:10:02.195Z,23.27
2018-06-25T17:12:31.077Z,23.19
2018-06-25T17:14:59.928Z,23.15
2018-06-25T17:17:28.755Z,23.05
2018-06-25T17:19:57.628Z,22.96
2018-06-25T17:22:26.471Z,22.96
2018-06-25T17:24:55.381Z,22.81
2018-06-25T17:27:24.219Z,22.81
2018-06-25T17:29:53.084Z,22.85
2018-06-25T17:32:21.937Z,22.82
2018-06-25T17:34:50.789Z,22.79
2018-06-25T17:37:23.039Z,22.75
2018-06-25T17:39:51.935Z,22.69
2018-06-25T17:42:20.810Z,22.62
2018-06-25T17:44:49.659Z,22.55
2018-06-25T17:47:18.515Z,22.54
2018-06-25T17:49:47.377Z,22.47
2018-06-25T17:52:16.195Z,22.44
2018-06-25T17:54:45.115Z,22.43
2018-06-25T17:57:13.872Z,22.39
2018-06-25T17:59:42.729Z,22.34
2018-06-25T18:02:11.552Z,22.24
2018-06-25T18:04:58.569Z,22.18
2018-06-25T18:07:27.396Z,22.02
2018-06-25T18:09:56.234Z,21.93
2018-06-25T18:12:25.069Z,21.91
2018-06-25T18:14:53.917Z,21.81
2018-06-25T18:17:22.773Z,21.68
2018-06-25T18:19:51.600Z,21.62
2018-06-25T18:22:20.440Z,21.60
2018-06-25T18:24:49.296Z,21.54
2018-06-25T18:27:18.150Z,21.43
2018-06-25T18:29:46.989Z,21.38
2018-06-25T18:32:15.823Z,21.31
2018-06-25T18:34:44.666Z,21.27
2018-06-25T18:37:13.545Z,21.19
2018-06-25T18:39:42.378Z,21.13
2018-06-25T18:42:11.236Z,20.96
2018-06-25T18:44:40.132Z,20.87
2018-06-25T18:47:08.951Z,20.75
2018-06-25T18:49:44.173Z,20.65
2018-06-25T18:52:13.039Z,20.60
2018-06-25T18:54:41.855Z,20.56
2018-06-25T18:57:10.760Z,20.47
2018-06-25T18:59:39.602Z,20.43
2018-06-25T19:02:08.462Z,20.39
2018-06-25T19:04:37.318Z,20.38
2018-06-25T19:07:06.197Z,20.23
2018-06-25T19:09:35.083Z,20.17
2018-06-25T19:12:07.078Z,20.03
2018-06-25T19:14:35.918Z,19.89
2018-06-25T19:17:04.837Z,19.87
2018-06-25T19:19:33.720Z,19.82
2018-06-25T19:22:02.562Z,19.76
2018-06-25T19:24:31.413Z,19.66
2018-06-25T19:27:00.260Z,19.62
2018-06-25T19:29:29.108Z,19.54
2018-06-25T19:31:57.937Z,19.42
2018-06-25T19:34:28.191Z,19.38
2018-06-25T19:36:57.027Z,19.34
2018-06-25T19:39:25.871Z,19.26
2018-06-25T19:41:54.751Z,19.13
2018-06-25T19:44:23.618Z,19.00
2018-06-25T19:46:52.562Z,18.95
2018-06-25T19:49:21.338Z,18.82
2018-06-25T19:51:51.163Z,18.77
2018-06-25T19:54:20.051Z,18.66
2018-06-25T19:56:49.020Z,18.68
2018-06-25T19:59:17.894Z,18.55
2018-06-25T20:01:46.814Z,18.51
2018-06-25T20:04:15.739Z,18.54
2018-06-25T20:06:44.588Z,18.38
2018-06-25T20:09:13.732Z,18.36
2018-06-25T20:11:42.672Z,18.31
2018-06-25T20:14:11.559Z,18.28
2018-06-25T20:16:40.496Z,18.23
2018-06-25T20:19:09.439Z,18.12
2018-06-25T20:21:38.234Z,18.04
2018-06-25T20:24:07.066Z,17.94
2018-06-25T20:26:35.942Z,17.97
2018-06-25T20:29:05.139Z,17.82
2018-06-25T20:31:33.995Z,17.82
2018-06-25T20:34:03.019Z,17.79
2018-06-25T20:36:32.716Z,17.75
2018-06-25T20:39:01.613Z,17.69
2018-06-25T20:41:30.495Z,17.60
2018-06-25T20:43:59.501Z,17.65
2018-06-25T20:46:28.460Z,17.62
2018-06-25T20:48:57.327Z,17.63
2018-06-25T20:51:26.215Z,17.47
2018-06-25T20:53:55.056Z,17.38
2018-06-25T20:56:23.922Z,17.27
2018-06-25T20:58:52.899Z,17.26
2018-06-25T21:01:21.843Z,17.35
2018-06-25T21:03:50.711Z,17.21
2018-06-25T21:06:19.649Z,17.15
2018-06-25T21:08:48.420Z,17.07
2018-06-25T21:11:17.266Z,17.02
2018-06-25T21:13:46.101Z,16.96
2018-06-25T21:16:14.960Z,16.87
2018-06-25T21:18:44.057Z,16.75
2018-06-25T21:21:12.947Z,16.67
2018-06-25T21:24:17.781Z,16.62
2018-06-25T21:26:46.587Z,16.58
2018-06-25T21:29:15.461Z,16.54
2018-06-25T21:31:44.350Z,16.55
2018-06-25T21:34:13.241Z,16.55
2018-06-25T21:36:42.110Z,16.52
2018-06-25T21:39:11.035Z,16.42
2018-06-25T21:41:39.907Z,16.35
2018-06-25T21:44:08.756Z,16.31
2018-06-25T21:46:39.147Z,16.23
2018-06-25T21:49:08.012Z,16.10
2018-06-25T21:51:36.901Z,16.01
2018-06-25T21:54:05.794Z,16.13
2018-06-25T21:56:34.664Z,15.98
2018-06-25T21:59:03.527Z,16.14
2018-06-25T22:01:32.365Z,15.92
2018-06-25T22:04:01.261Z,15.88
2018-06-25T22:06:30.122Z,15.86
2018-06-25T22:09:08.149Z,16.01
2018-06-25T22:11:37.001Z,15.78
2018-06-25T22:14:05.937Z,15.74
2018-06-25T22:16:34.874Z,15.64
2018-06-25T22:19:03.735Z,15.62
2018-06-25T22:21:32.610Z,15.60
2018-06-25T22:24:01.538Z,15.58
2018-06-25T22:26:30.392Z,15.56
2018-06-25T22:28:59.251Z,15.48
2018-06-25T22:31:28.122Z,15.43
2018-06-25T22:33:56.948Z,15.38
2018-06-25T22:36:25.798Z,15.35
2018-06-25T22:38:54.635Z,15.23
2018-06-25T22:41:23.676Z,15.12
2018-06-25T22:43:52.520Z,15.32
2018-06-25T22:46:21.388Z,15.12
2018-06-25T22:48:50.209Z,15.30
2018-06-25T22:51:20.634Z,15.13
2018-06-25T22:53:49.509Z,15.11
2018-06-25T22:56:18.388Z,15.07
2018-06-25T22:58:47.235Z,15.01
2018-06-25T23:01:16.092Z,14.90
2018-06-25T23:03:45.042Z,14.85
2018-06-25T23:06:13.864Z,14.78
2018-06-25T23:08:42.724Z,14.75
2018-06-25T23:11:11.915Z,14.71
2018-06-25T23:13:40.969Z,14.68
2018-06-25T23:16:09.841Z,14.61
2018-06-25T23:18:38.721Z,14.55
2018-06-25T23:21:07.883Z,14.47
2018-06-25T23:23:36.735Z,14.37
2018-06-25T23:26:05.619Z,14.30
2018-06-25T23:28:34.499Z,14.28
2018-06-25T23:31:03.342Z,14.29
2018-06-25T23:33:32.205Z,14.26
2018-06-25T23:36:01.182Z,14.23
2018-06-25T23:38:30.069Z,14.15
2018-06-25T23:40:58.936Z,14.38
2018-06-25T23:43:27.775Z,14.17
2018-06-25T23:45:56.604Z,14.08
2018-06-25T23:48:25.454Z,13.98
2018-06-25T23:50:54.313Z,13.89
2018-06-25T23:53:23.150Z,13.85
2018-06-25T23:55:51.989Z,13.79
2018-06-25T23:58:20.917Z,13.69
